createdAt,value
2023-04-25T00:00:43.075Z,8.00
2023-04-25T00:03:10.155Z,8.00
2023-04-25T00:05:38.191Z,8.00
2023-04-25T00:08:05.172Z,8.00
2023-04-25T00:10:32.121Z,8.00
2023-04-25T00:12:59.636Z,8.00
2023-04-25T00:15:26.194Z,7.90
2023-04-25T00:17:53.975Z,8.00
2023-04-25T00:20:20.762Z,7.90
2023-04-25T00:22:47.369Z,8.00
2023-04-25T00:25:13.968Z,8.00
2023-04-25T00:27:40.769Z,7.90
2023-04-25T00:30:07.636Z,7.90
2023-04-25T00:32:34.308Z,7.90
2023-04-25T00:35:00.963Z,7.90
2023-04-25T00:37:27.694Z,8.00
2023-04-25T00:39:55.866Z,7.90
2023-04-25T00:42:22.445Z,7.90
2023-04-25T00:44:49.071Z,7.90
2023-04-25T00:47:16.181Z,7.90
2023-04-25T00:49:42.744Z,7.80
2023-04-25T00:52:09.366Z,7.80
2023-04-25T00:54:35.921Z,7.80
2023-04-25T00:57:03.229Z,7.80
2023-04-25T00:59:31.699Z,7.80
2023-04-25T01:01:59.182Z,7.90
2023-04-25T01:04:27.887Z,7.90
2023-04-25T01:06:54.546Z,7.80
2023-04-25T01:09:21.831Z,7.80
2023-04-25T01:11:48.524Z,7.70
2023-04-25T01:14:15.094Z,7.70
2023-04-25T01:16:42.448Z,7.80
2023-04-25T01:19:12.147Z,7.80
2023-04-25T01:21:38.771Z,7.90
2023-04-25T01:24:05.900Z,7.90
2023-04-25T01:26:32.785Z,7.90
2023-04-25T01:28:59.780Z,7.80
2023-04-25T01:31:27.511Z,7.90
2023-04-25T01:33:54.218Z,7.90
2023-04-25T01:36:21.201Z,7.90
2023-04-25T01:38:48.392Z,7.80
2023-04-25T01:41:15.406Z,7.70
2023-04-25T01:43:42.037Z,7.70
2023-04-25T01:46:08.622Z,7.60
2023-04-25T01:48:35.270Z,7.60
2023-04-25T01:51:01.926Z,7.60
2023-04-25T01:53:28.541Z,7.60
2023-04-25T01:55:55.173Z,7.50
2023-04-25T01:58:21.802Z,7.40
2023-04-25T02:00:48.405Z,7.40
2023-04-25T02:03:15.084Z,7.40
2023-04-25T02:05:41.802Z,7.30
2023-04-25T02:08:09.237Z,7.30
2023-04-25T02:10:36.319Z,7.30
2023-04-25T02:13:02.967Z,7.30
2023-04-25T02:15:29.549Z,7.30
2023-04-25T02:17:56.359Z,7.30
2023-04-25T02:20:24.109Z,7.30
2023-04-25T02:22:50.802Z,7.30
2023-04-25T02:25:18.101Z,7.40
2023-04-25T02:27:44.720Z,7.30
2023-04-25T02:30:11.491Z,7.30
2023-04-25T02:32:38.270Z,7.30
2023-04-25T02:35:05.413Z,7.40
2023-04-25T02:37:32.505Z,7.40
2023-04-25T02:39:59.173Z,7.30
2023-04-25T02:42:25.932Z,7.40
2023-04-25T02:44:52.483Z,7.40
2023-04-25T02:47:19.223Z,7.40
2023-04-25T02:49:46.202Z,7.50
2023-04-25T02:52:13.156Z,7.40
2023-04-25T02:54:39.982Z,7.40
2023-04-25T02:57:06.670Z,7.50
2023-04-25T02:59:33.687Z,7.60
2023-04-25T03:02:00.256Z,7.50
2023-04-25T03:04:27.011Z,7.60
2023-04-25T03:06:54.117Z,7.50
2023-04-25T03:09:20.772Z,7.60
2023-04-25T03:11:47.369Z,7.60
2023-04-25T03:14:14.476Z,7.60
2023-04-25T03:16:41.243Z,7.60
2023-04-25T03:19:07.845Z,7.60
2023-04-25T03:21:34.808Z,7.60
2023-04-25T03:24:01.996Z,7.60
2023-04-25T03:26:28.684Z,7.50
2023-04-25T03:28:55.273Z,7.60
2023-04-25T03:31:21.881Z,7.50
2023-04-25T03:33:48.908Z,7.50
2023-04-25T03:36:15.779Z,7.50
2023-04-25T03:38:42.762Z,7.50
2023-04-25T03:41:09.432Z,7.40
2023-04-25T03:43:36.081Z,7.50
2023-04-25T03:46:02.893Z,7.50
2023-04-25T03:48:29.636Z,7.50
2023-04-25T03:50:56.253Z,7.40
2023-04-25T03:53:22.879Z,7.40
2023-04-25T03:55:49.435Z,7.30
2023-04-25T03:58:15.990Z,7.20
2023-04-25T04:00:42.544Z,7.20
2023-04-25T04:03:09.347Z,7.20
2023-04-25T04:05:36.321Z,7.20
2023-04-25T04:08:02.940Z,7.10
2023-04-25T04:10:29.529Z,7.10
2023-04-25T04:12:56.141Z,7.00
2023-04-25T04:15:22.790Z,6.90
2023-04-25T04:17:49.729Z,6.90
2023-04-25T04:20:16.329Z,6.90
2023-04-25T04:22:42.888Z,6.90
2023-04-25T04:25:10.528Z,6.80
2023-04-25T04:27:37.088Z,6.80
2023-04-25T04:30:04.288Z,6.90
2023-04-25T04:32:31.599Z,6.90
2023-04-25T04:34:58.233Z,6.90
2023-04-25T04:37:25.116Z,6.80
2023-04-25T04:39:52.923Z,6.90
2023-04-25T04:42:19.534Z,6.90
2023-04-25T04:44:46.103Z,6.90
2023-04-25T04:47:13.617Z,6.90
2023-04-25T04:49:40.689Z,6.80
2023-04-25T04:52:07.248Z,6.70
2023-04-25T04:54:34.669Z,6.80
2023-04-25T04:57:01.254Z,6.80
2023-04-25T04:59:27.840Z,6.80
2023-04-25T05:01:54.407Z,6.90
2023-04-25T05:04:21.087Z,6.80
2023-04-25T05:06:49.086Z,6.80
2023-04-25T05:09:16.220Z,6.80
2023-04-25T05:11:42.787Z,6.80
2023-04-25T05:14:09.376Z,6.80
2023-04-25T05:16:36.244Z,6.90
2023-04-25T05:19:02.875Z,6.90
2023-04-25T05:21:29.702Z,6.80
2023-04-25T05:23:56.696Z,6.80
2023-04-25T05:26:23.279Z,6.80
2023-04-25T05:28:51.917Z,6.90
2023-04-25T05:31:18.546Z,6.90
2023-04-25T05:33:45.177Z,7.00
2023-04-25T05:36:11.734Z,7.00
2023-04-25T05:38:38.321Z,7.00
2023-04-25T05:41:04.998Z,7.10
2023-04-25T05:43:31.626Z,7.20
2023-04-25T05:45:58.177Z,7.20
2023-04-25T05:48:24.816Z,7.30
2023-04-25T05:50:52.484Z,7.30
2023-04-25T05:53:19.704Z,7.40
2023-04-25T05:55:46.258Z,7.50
2023-04-25T05:58:12.845Z,7.50
2023-04-25T06:00:39.446Z,7.50
2023-04-25T06:03:06.376Z,7.40
2023-04-25T06:05:33.244Z,7.50
2023-04-25T06:07:59.909Z,7.40
2023-04-25T06:10:26.733Z,7.40
2023-04-25T06:12:53.361Z,7.40
2023-04-25T06:17:50.173Z,7.40
2023-04-25T06:20:16.906Z,7.40
2023-04-25T06:22:43.450Z,7.60
2023-04-25T06:25:10.083Z,7.60
2023-04-25T06:27:36.652Z,7.80
2023-04-25T06:30:03.369Z,7.70
2023-04-25T06:32:30.937Z,7.80
2023-04-25T06:34:57.814Z,7.80
2023-04-25T06:37:24.461Z,7.80
2023-04-25T06:39:51.101Z,7.70
2023-04-25T06:42:17.695Z,7.90
2023-04-25T06:44:44.375Z,8.10
2023-04-25T06:47:11.137Z,8.40
2023-04-25T06:52:04.706Z,8.60
2023-04-25T06:54:31.511Z,8.60
2023-04-25T06:56:58.102Z,8.40
2023-04-25T06:59:24.900Z,8.50
2023-04-25T07:01:51.529Z,8.70
2023-04-25T07:04:18.365Z,8.80
2023-04-25T07:06:45.838Z,8.80
2023-04-25T07:09:13.061Z,8.60
2023-04-25T07:11:39.642Z,8.60
2023-04-25T07:14:06.243Z,8.70
2023-04-25T07:16:32.836Z,8.70
2023-04-25T07:19:00.533Z,8.70
2023-04-25T07:21:27.336Z,8.70
2023-04-25T07:23:53.925Z,8.60
2023-04-25T07:26:20.545Z,9.20
2023-04-25T07:28:50.874Z,9.20
2023-04-25T07:31:19.156Z,9.60
2023-04-25T07:33:46.778Z,9.60
2023-04-25T07:36:13.788Z,9.70
2023-04-25T07:38:40.503Z,10.20
2023-04-25T07:43:34.165Z,11.00
2023-04-25T07:48:27.903Z,11.50
2023-04-25T07:53:21.881Z,12.90
2023-04-25T07:58:16.304Z,12.60
2023-04-25T08:00:43.218Z,11.20
2023-04-25T08:03:10.717Z,10.80
2023-04-25T08:05:37.523Z,11.50
2023-04-25T08:08:05.430Z,11.40
2023-04-25T08:10:31.986Z,11.70
2023-04-25T08:12:58.644Z,11.80
2023-04-25T08:15:26.645Z,12.30
2023-04-25T08:17:53.255Z,12.80
2023-04-25T08:20:20.014Z,12.60
2023-04-25T08:22:46.622Z,13.10
2023-04-25T08:25:13.272Z,12.90
2023-04-25T08:27:39.915Z,12.60
2023-04-25T08:30:06.970Z,11.30
2023-04-25T08:32:34.779Z,11.60
2023-04-25T08:35:01.442Z,12.00
2023-04-25T08:37:28.032Z,12.50
2023-04-25T08:39:54.696Z,13.20
2023-04-25T08:44:49.064Z,13.30
2023-04-25T08:47:15.892Z,12.80
2023-04-25T08:49:45.847Z,12.30
2023-04-25T08:52:13.806Z,12.00
2023-04-25T08:54:44.472Z,12.30
2023-04-25T08:57:12.065Z,12.00
2023-04-25T08:59:40.034Z,12.00
2023-04-25T09:02:07.082Z,12.20
2023-04-25T09:04:33.707Z,12.60
2023-04-25T09:07:00.495Z,13.00
2023-04-25T09:09:27.073Z,13.70
2023-04-25T09:11:54.956Z,13.20
2023-04-25T09:14:22.455Z,13.20
2023-04-25T09:16:58.626Z,13.50
2023-04-25T09:22:06.918Z,14.00
2023-04-25T09:24:41.527Z,14.50
2023-04-25T09:27:09.595Z,14.50
2023-04-25T09:29:37.622Z,14.30
2023-04-25T09:32:16.577Z,13.70
2023-04-25T09:34:44.346Z,13.60
2023-04-25T09:37:14.397Z,13.70
2023-04-25T09:39:41.292Z,13.70
2023-04-25T09:42:10.194Z,14.00
2023-04-25T09:44:36.868Z,14.10
2023-04-25T09:51:58.330Z,15.00
2023-04-25T09:54:25.813Z,15.40
2023-04-25T09:56:53.677Z,16.10
2023-04-25T09:59:21.623Z,16.10
2023-04-25T10:01:49.070Z,15.70
2023-04-25T10:04:19.867Z,15.10
2023-04-25T10:06:47.198Z,14.90
2023-04-25T10:09:15.005Z,15.60
2023-04-25T10:11:41.709Z,16.00
2023-04-25T10:14:08.329Z,16.10
2023-04-25T10:16:50.761Z,16.30
2023-04-25T10:19:17.505Z,16.30
2023-04-25T10:21:49.443Z,16.00
2023-04-25T10:24:16.373Z,16.10
2023-04-25T10:26:43.145Z,16.30
2023-04-25T10:29:10.388Z,16.30
2023-04-25T10:31:46.104Z,16.30
2023-04-25T10:34:12.708Z,15.90
2023-04-25T10:36:39.279Z,16.00
2023-04-25T10:39:10.017Z,16.40
2023-04-25T10:41:53.017Z,14.80
2023-04-25T10:44:19.664Z,14.50
2023-04-25T10:49:29.634Z,14.80
2023-04-25T10:52:11.681Z,14.60
2023-04-25T10:54:57.605Z,14.80
2023-04-25T10:57:49.523Z,15.30
2023-04-25T11:00:17.502Z,15.20
2023-04-25T11:02:46.273Z,14.70
2023-04-25T11:05:22.571Z,14.90
2023-04-25T11:08:04.023Z,14.90
2023-04-25T11:10:36.517Z,14.60
2023-04-25T11:13:03.976Z,14.50
2023-04-25T11:15:30.818Z,14.70
2023-04-25T11:17:57.658Z,14.70
2023-04-25T11:20:27.001Z,14.10
2023-04-25T11:22:53.700Z,13.60
2023-04-25T11:25:21.505Z,14.50
2023-04-25T11:27:55.511Z,14.40
2023-04-25T11:30:22.835Z,13.40
2023-04-25T11:32:49.520Z,12.80
2023-04-25T11:35:19.037Z,13.40
2023-04-25T11:37:46.303Z,13.20
2023-04-25T11:40:13.202Z,14.50
2023-04-25T11:42:40.404Z,13.30
2023-04-25T11:45:07.602Z,12.70
2023-04-25T11:47:34.786Z,13.00
2023-04-25T11:50:02.235Z,13.10
2023-04-25T11:52:38.008Z,12.50
2023-04-25T11:55:11.729Z,13.80
2023-04-25T11:57:38.993Z,13.00
2023-04-25T12:00:07.100Z,13.30
2023-04-25T12:02:35.944Z,13.60
2023-04-25T12:05:16.097Z,13.60
2023-04-25T12:07:50.120Z,13.90
2023-04-25T12:10:17.612Z,14.20
2023-04-25T12:12:45.078Z,14.90
2023-04-25T12:15:13.052Z,13.50
2023-04-25T12:17:40.188Z,13.40
2023-04-25T12:20:11.380Z,14.20
2023-04-25T12:22:38.516Z,13.00
2023-04-25T12:25:06.084Z,12.40
2023-04-25T12:27:32.874Z,12.70
2023-04-25T12:29:59.526Z,12.60
2023-04-25T12:32:27.598Z,12.70
2023-04-25T12:34:54.275Z,12.80
2023-04-25T12:37:21.288Z,12.80
2023-04-25T12:39:47.894Z,12.60
2023-04-25T12:42:21.177Z,12.70
2023-04-25T12:44:48.103Z,13.30
2023-04-25T12:47:14.877Z,13.10
2023-04-25T12:52:08.953Z,13.40
2023-04-25T12:54:36.390Z,13.60
2023-04-25T12:57:04.032Z,12.90
2023-04-25T12:59:30.806Z,14.20
2023-04-25T13:01:57.738Z,14.90
2023-04-25T13:04:24.611Z,14.50
2023-04-25T13:06:51.404Z,12.90
2023-04-25T13:09:19.868Z,13.60
2023-04-25T13:11:47.068Z,13.80
2023-04-25T13:14:13.754Z,13.50
2023-04-25T13:16:40.537Z,14.30
2023-04-25T13:19:08.878Z,13.80
2023-04-25T13:21:35.604Z,14.30
2023-04-25T13:24:02.232Z,14.30
2023-04-25T13:26:28.877Z,13.80
2023-04-25T13:28:55.550Z,13.60
2023-04-25T13:31:22.347Z,13.70
2023-04-25T13:33:49.735Z,13.30
2023-04-25T13:36:16.785Z,11.70
2023-04-25T13:38:45.100Z,12.20
2023-04-25T13:41:16.620Z,11.80
2023-04-25T13:43:43.354Z,11.80
2023-04-25T13:46:24.898Z,11.90
2023-04-25T13:49:02.994Z,11.70
2023-04-25T13:51:36.860Z,11.70
2023-04-25T13:54:03.607Z,11.70
2023-04-25T13:56:30.914Z,12.70
2023-04-25T13:58:57.876Z,12.60
2023-04-25T14:01:24.546Z,12.40
2023-04-25T14:03:51.606Z,14.40
2023-04-25T14:06:23.739Z,14.00
2023-04-25T14:08:51.297Z,12.40
2023-04-25T14:11:19.140Z,12.30
2023-04-25T14:13:46.276Z,12.40
2023-04-25T14:16:13.050Z,12.50
2023-04-25T14:18:39.981Z,13.20
2023-04-25T14:21:06.655Z,14.60
2023-04-25T14:23:33.295Z,14.50
2023-04-25T14:25:59.910Z,14.30
2023-04-25T14:28:26.562Z,14.90
2023-04-25T14:30:53.208Z,14.90
2023-04-25T14:33:19.858Z,14.20
2023-04-25T14:35:47.001Z,13.20
2023-04-25T14:38:13.617Z,13.30
2023-04-25T14:40:40.332Z,13.30
2023-04-25T14:43:06.932Z,12.70
2023-04-25T14:45:35.088Z,13.20
2023-04-25T14:48:02.396Z,13.60
2023-04-25T14:52:59.666Z,12.50
2023-04-25T14:55:26.335Z,12.60
2023-04-25T14:57:55.783Z,12.80
2023-04-25T15:00:24.124Z,12.90
2023-04-25T15:02:50.944Z,12.90
2023-04-25T15:05:18.023Z,13.60
2023-04-25T15:07:44.756Z,13.00
2023-04-25T15:10:16.701Z,13.50
2023-04-25T15:12:44.739Z,13.50
2023-04-25T15:15:17.445Z,13.10
2023-04-25T15:17:46.856Z,12.80
2023-04-25T15:20:14.139Z,12.60
2023-04-25T15:22:41.209Z,12.40
2023-04-25T15:25:11.638Z,13.10
2023-04-25T15:27:41.072Z,12.00
2023-04-25T15:30:08.631Z,12.00
2023-04-25T15:32:35.352Z,11.80
2023-04-25T15:35:04.439Z,11.50
2023-04-25T15:37:31.386Z,12.10
2023-04-25T15:40:11.916Z,11.70
2023-04-25T15:45:09.647Z,12.40
2023-04-25T15:47:39.771Z,12.30
2023-04-25T15:50:17.589Z,12.10
2023-04-25T15:52:45.900Z,12.10
2023-04-25T15:55:13.760Z,11.90
2023-04-25T15:57:42.262Z,11.90
2023-04-25T16:00:13.302Z,12.00
2023-04-25T16:02:40.751Z,11.50
2023-04-25T16:05:07.848Z,12.10
2023-04-25T16:07:34.757Z,11.20
2023-04-25T16:10:01.717Z,10.40
2023-04-25T16:12:28.603Z,10.90
2023-04-25T16:14:56.117Z,11.40
2023-04-25T16:17:22.772Z,10.70
2023-04-25T16:19:50.327Z,11.30
2023-04-25T16:22:17.349Z,10.80
2023-04-25T16:24:44.701Z,10.70
2023-04-25T16:27:11.554Z,11.00
2023-04-25T16:29:38.472Z,10.70
2023-04-25T16:32:05.356Z,11.10
2023-04-25T16:34:31.987Z,11.30
2023-04-25T16:36:58.867Z,11.70
2023-04-25T16:39:25.548Z,11.60
2023-04-25T16:41:52.246Z,11.10
2023-04-25T16:44:19.071Z,11.00
2023-04-25T16:46:45.846Z,11.50
2023-04-25T16:49:12.586Z,11.00
2023-04-25T16:51:39.256Z,11.50
2023-04-25T16:54:05.947Z,10.80
2023-04-25T16:56:32.553Z,10.40
2023-04-25T16:58:59.129Z,11.10
2023-04-25T17:01:25.886Z,10.50
2023-04-25T17:03:52.851Z,10.50
2023-04-25T17:06:19.666Z,10.60
2023-04-25T17:08:46.354Z,10.60
2023-04-25T17:11:13.098Z,10.50
2023-04-25T17:13:39.936Z,10.50
2023-04-25T17:16:07.470Z,10.20
2023-04-25T17:18:34.100Z,10.40
2023-04-25T17:21:02.002Z,10.50
2023-04-25T17:23:28.583Z,10.50
2023-04-25T17:25:55.177Z,10.40
2023-04-25T17:28:21.758Z,10.30
2023-04-25T17:30:48.368Z,10.30
2023-04-25T17:33:15.073Z,10.20
2023-04-25T17:35:41.685Z,10.20
2023-04-25T17:38:08.725Z,10.20
2023-04-25T17:40:35.380Z,10.10
2023-04-25T17:43:02.028Z,9.90
2023-04-25T17:45:34.435Z,10.00
2023-04-25T17:48:01.641Z,9.90
2023-04-25T17:50:28.465Z,9.90
2023-04-25T17:52:55.082Z,9.70
2023-04-25T17:55:21.700Z,9.40
2023-04-25T17:57:48.283Z,9.60
2023-04-25T18:00:15.166Z,9.60
2023-04-25T18:02:41.835Z,9.50
2023-04-25T18:05:11.513Z,9.70
2023-04-25T18:07:38.361Z,9.40
2023-04-25T18:10:08.306Z,9.20
2023-04-25T18:12:34.978Z,9.50
2023-04-25T18:15:01.913Z,9.40
2023-04-25T18:17:28.624Z,9.40
2023-04-25T18:19:55.460Z,9.40
2023-04-25T18:22:22.356Z,9.30
2023-04-25T18:24:54.636Z,9.30
2023-04-25T18:27:21.383Z,9.30
2023-04-25T18:29:48.036Z,9.20
2023-04-25T18:32:14.674Z,9.20
2023-04-25T18:34:43.741Z,9.10
2023-04-25T18:37:13.025Z,9.20
2023-04-25T18:42:08.419Z,9.00
2023-04-25T18:44:39.539Z,9.10
2023-04-25T18:47:10.346Z,9.10
2023-04-25T18:49:37.617Z,9.00
2023-04-25T18:52:05.014Z,9.00
2023-04-25T18:54:32.133Z,9.10
2023-04-25T18:57:00.962Z,9.00
2023-04-25T18:59:27.753Z,9.00
2023-04-25T19:01:54.414Z,9.00
2023-04-25T19:04:21.467Z,8.90
2023-04-25T19:09:18.845Z,8.80
2023-04-25T19:11:45.579Z,8.80
2023-04-25T19:14:13.763Z,8.70
2023-04-25T19:19:09.152Z,8.60
2023-04-25T19:21:36.198Z,8.60
2023-04-25T19:24:03.819Z,8.50
2023-04-25T19:26:30.683Z,8.50
2023-04-25T19:29:05.824Z,8.40
2023-04-25T19:31:33.439Z,8.40
2023-04-25T19:34:00.151Z,8.40
2023-04-25T19:36:27.861Z,8.30
2023-04-25T19:38:54.559Z,8.10
2023-04-25T19:41:21.195Z,8.20
2023-04-25T19:43:48.089Z,8.10
2023-04-25T19:46:14.781Z,8.10
2023-04-25T19:48:41.540Z,8.20
2023-04-25T19:51:09.126Z,8.10
2023-04-25T19:53:35.732Z,8.20
2023-04-25T19:56:02.592Z,8.20
2023-04-25T19:58:29.777Z,8.10
2023-04-25T20:03:24.520Z,8.00
2023-04-25T20:05:51.231Z,7.90
2023-04-25T20:08:17.784Z,7.80
2023-04-25T20:10:44.418Z,7.80
2023-04-25T20:13:14.716Z,7.70
2023-04-25T20:15:41.250Z,7.60
2023-04-25T20:20:36.296Z,7.40
2023-04-25T20:23:03.025Z,7.30
2023-04-25T20:25:29.576Z,7.30
2023-04-25T20:27:56.751Z,7.30
2023-04-25T20:30:23.352Z,7.30
2023-04-25T20:32:50.089Z,7.20
2023-04-25T20:35:17.521Z,7.30
2023-04-25T20:37:44.121Z,7.20
2023-04-25T20:40:10.872Z,7.20
2023-04-25T20:42:38.154Z,7.20
2023-04-25T20:45:10.758Z,7.20
2023-04-25T20:47:37.334Z,7.20
2023-04-25T20:50:05.957Z,7.10
2023-04-25T20:52:33.107Z,6.90
2023-04-25T20:54:59.696Z,6.80
2023-04-25T20:57:26.354Z,6.90
2023-04-25T20:59:53.103Z,6.90
2023-04-25T21:02:20.079Z,6.90
2023-04-25T21:04:46.730Z,6.60
2023-04-25T21:07:13.350Z,6.30
2023-04-25T21:09:45.312Z,6.20
2023-04-25T21:12:12.149Z,6.10
2023-04-25T21:14:38.744Z,6.10
2023-04-25T21:17:05.383Z,6.20
2023-04-25T21:19:32.297Z,6.10
2023-04-25T21:21:59.245Z,6.10
2023-04-25T21:24:27.045Z,6.00
2023-04-25T21:26:53.700Z,6.00
2023-04-25T21:29:20.241Z,5.90
2023-04-25T21:34:13.994Z,5.70
2023-04-25T21:36:41.339Z,5.70
2023-04-25T21:39:07.987Z,5.60
2023-04-25T21:41:34.751Z,5.60
2023-04-25T21:44:01.432Z,5.50
2023-04-25T21:46:28.053Z,5.20
2023-04-25T21:48:55.104Z,5.10
2023-04-25T21:51:22.689Z,4.80
2023-04-25T21:53:49.291Z,4.90
2023-04-25T21:56:16.001Z,4.70
2023-04-25T21:58:42.613Z,4.70
2023-04-25T22:01:09.905Z,4.50
2023-04-25T22:03:36.792Z,4.50
2023-04-25T22:06:03.953Z,4.50
2023-04-25T22:08:30.619Z,4.60
2023-04-25T22:10:57.245Z,4.60
2023-04-25T22:13:23.936Z,4.60
2023-04-25T22:15:50.802Z,4.50
2023-04-25T22:18:18.187Z,4.50
2023-04-25T22:20:44.948Z,4.50
2023-04-25T22:23:12.188Z,4.40
2023-04-25T22:25:38.811Z,4.40
2023-04-25T22:28:05.475Z,4.40
2023-04-25T22:30:32.425Z,4.30
2023-04-25T22:32:59.218Z,4.30
2023-04-25T22:35:26.004Z,4.30
2023-04-25T22:37:52.976Z,4.30
2023-04-25T22:40:19.609Z,4.30
2023-04-25T22:42:46.658Z,4.20
2023-04-25T22:45:13.495Z,4.10
2023-04-25T22:47:40.322Z,4.10
2023-04-25T22:50:12.386Z,4.10
2023-04-25T22:52:39.132Z,4.00
2023-04-25T22:55:06.509Z,3.90
2023-04-25T22:57:33.152Z,3.80
2023-04-25T22:59:59.771Z,3.60
2023-04-25T23:02:27.511Z,3.90
2023-04-25T23:04:54.994Z,3.80
2023-04-25T23:07:21.688Z,3.70
2023-04-25T23:09:48.260Z,3.60
2023-04-25T23:12:17.737Z,3.30
2023-04-25T23:14:44.915Z,3.30
2023-04-25T23:17:11.683Z,3.30
2023-04-25T23:19:38.372Z,3.20
2023-04-25T23:22:05.939Z,3.00
2023-04-25T23:24:36.245Z,2.80
2023-04-25T23:27:03.623Z,3.00
2023-04-25T23:29:30.376Z,2.60
2023-04-25T23:31:57.011Z,3.00
2023-04-25T23:34:23.638Z,2.80
2023-04-25T23:36:50.458Z,2.80
2023-04-25T23:39:19.082Z,2.80
2023-04-25T23:41:45.950Z,2.80
2023-04-25T23:44:12.558Z,2.70
2023-04-25T23:46:39.148Z,2.70
2023-04-25T23:49:05.826Z,2.60
2023-04-25T23:51:32.444Z,2.50
2023-04-25T23:53:59.109Z,2.70
2023-04-25T23:56:26.266Z,2.70
2023-04-25T23:58:53.169Z,2.40
